Terminal Aerodrome Forecast
Issued by NWS

Home | Current Version | Previous Version | Text Only | Print | Product List | Glossary On
Versions: 1 2 3 4 5 6 7 8 9 10 11 12 13 14 15 16 17 18 19 20
000
FTUS41 KRNK 251003 AAA
TAFBCB
TAF AMD
KBCB 251003Z 2510/2606 00000KT P6SM SCT030
      TEMPO 2510/2512 BKN030
     FM251600 29006KT P6SM SKC=

USA.gov is the U.S. government's official web portal to all federal, state and local government web resources and services.